createdAt,value
2022-09-11T00:00:21.034Z,88775.13
2022-09-11T00:03:05.739Z,88772.19
2022-09-11T00:05:50.595Z,88764.91
2022-09-11T00:08:35.360Z,88764.22
2022-09-11T00:11:20.089Z,88762.13
2022-09-11T00:14:04.904Z,88765.84
2022-09-11T00:16:49.731Z,88761.25
2022-09-11T00:19:34.553Z,88763.22
2022-09-11T00:22:19.446Z,88764.44
2022-09-11T00:25:04.087Z,88768.03
2022-09-11T00:27:48.826Z,88762.72
2022-09-11T00:30:33.667Z,88774.50
2022-09-11T00:33:18.433Z,88767.22
2022-09-11T00:36:03.322Z,88773.78
2022-09-11T00:38:48.100Z,88774.16
2022-09-11T00:41:32.899Z,88768.94
2022-09-11T00:44:17.553Z,88773.88
2022-09-11T00:47:02.514Z,88778.09
2022-09-11T00:49:47.088Z,88778.81
2022-09-11T00:52:31.830Z,88766.19
2022-09-11T00:55:16.529Z,88768.88
2022-09-11T00:58:01.153Z,88767.16
2022-09-11T01:00:45.858Z,88772.97
2022-09-11T01:03:30.723Z,88771.22
2022-09-11T01:06:15.466Z,88775.44
2022-09-11T01:09:00.221Z,88768.63
2022-09-11T01:11:45.133Z,88762.69
2022-09-11T01:14:33.772Z,88760.06
2022-09-11T01:17:19.672Z,88763.75
2022-09-11T01:20:04.436Z,88766.38
2022-09-11T01:22:49.212Z,88762.91
2022-09-11T01:25:34.028Z,88770.09
2022-09-11T01:28:18.693Z,88774.31
2022-09-11T01:31:03.478Z,88763.66
2022-09-11T01:33:48.261Z,88767.31
2022-09-11T01:36:33.025Z,88764.53
2022-09-11T01:39:17.669Z,88764.19
2022-09-11T01:42:02.397Z,88758.75
2022-09-11T01:44:47.093Z,88772.75
2022-09-11T01:47:31.812Z,88765.41
2022-09-11T01:50:16.804Z,88766.97
2022-09-11T01:53:01.660Z,88765.06
2022-09-11T01:55:46.607Z,88764.38
2022-09-11T01:58:31.307Z,88767.16
2022-09-11T02:01:16.016Z,88762.13
2022-09-11T02:04:00.585Z,88760.00
2022-09-11T02:06:45.334Z,88762.13
2022-09-11T02:09:29.973Z,88754.09
2022-09-11T02:12:14.810Z,88756.53
2022-09-11T02:14:59.630Z,88757.91
2022-09-11T02:17:44.552Z,88759.66
2022-09-11T02:20:29.189Z,88756.50
2022-09-11T02:23:13.919Z,88762.78
2022-09-11T02:25:58.783Z,88760.00
2022-09-11T02:28:43.592Z,88756.50
2022-09-11T02:31:28.614Z,88762.13
2022-09-11T02:34:13.222Z,88757.75
2022-09-11T02:36:57.954Z,88759.84
2022-09-11T02:39:42.779Z,88756.53
2022-09-11T02:42:27.459Z,88765.78
2022-09-11T02:45:12.341Z,88765.28
2022-09-11T02:47:57.151Z,88764.91
2022-09-11T02:50:42.053Z,88767.69
2022-09-11T02:53:26.778Z,88762.78
2022-09-11T02:56:11.535Z,88766.28
2022-09-11T02:58:56.380Z,88769.25
2022-09-11T03:01:41.130Z,88767.31
2022-09-11T03:04:25.712Z,88767.84
2022-09-11T03:07:10.588Z,88765.56
2022-09-11T03:09:55.242Z,88764.72
2022-09-11T03:12:40.057Z,88765.06
2022-09-11T03:15:24.903Z,88764.72
2022-09-11T03:18:09.760Z,88766.78
2022-09-11T03:20:54.718Z,88758.59
2022-09-11T03:23:39.495Z,88766.25
2022-09-11T03:26:24.268Z,88762.94
2022-09-11T03:29:08.969Z,88761.56
2022-09-11T03:31:53.825Z,88768.69
2022-09-11T03:34:38.500Z,88768.34
2022-09-11T03:37:23.196Z,88770.25
2022-09-11T03:40:07.967Z,88762.94
2022-09-11T03:42:53.033Z,88755.41
2022-09-11T03:45:37.898Z,88757.50
2022-09-11T03:48:22.535Z,88765.72
2022-09-11T03:51:07.417Z,88754.00
2022-09-11T03:53:52.208Z,88753.47
2022-09-11T03:56:36.915Z,88756.78
2022-09-11T03:59:21.675Z,88758.69
2022-09-11T04:02:06.625Z,88764.25
2022-09-11T04:04:51.213Z,88766.19
2022-09-11T04:07:36.009Z,88761.78
2022-09-11T04:10:20.786Z,88770.13
2022-09-11T04:13:05.634Z,88767.34
2022-09-11T04:15:50.501Z,88771.16
2022-09-11T04:18:35.377Z,88762.06
2022-09-11T04:21:20.227Z,88772.00
2022-09-11T04:24:04.995Z,88766.09
2022-09-11T04:26:49.866Z,88770.44
2022-09-11T04:29:34.552Z,88766.09
2022-09-11T04:32:19.305Z,88773.25
2022-09-11T04:35:03.908Z,88773.44
2022-09-11T04:37:48.712Z,88777.94
2022-09-11T04:40:33.603Z,88776.16
2022-09-11T04:43:18.501Z,88774.97
2022-09-11T04:46:03.259Z,88773.03
2022-09-11T04:48:48.318Z,88781.38
2022-09-11T04:51:33.012Z,88775.78
2022-09-11T04:54:17.789Z,88775.25
2022-09-11T04:57:02.809Z,88777.34
2022-09-11T04:59:47.516Z,88780.81
2022-09-11T05:02:32.370Z,88782.94
2022-09-11T05:05:17.027Z,88778.75
2022-09-11T05:08:01.775Z,88780.47
2022-09-11T05:10:46.583Z,88785.88
2022-09-11T05:13:36.076Z,88778.88
2022-09-11T05:16:21.396Z,88791.75
2022-09-11T05:19:06.125Z,88791.25
2022-09-11T05:21:50.925Z,88781.66
2022-09-11T05:24:35.756Z,88788.16
2022-09-11T05:27:20.486Z,88792.03
2022-09-11T05:30:05.513Z,88792.88
2022-09-11T05:32:50.140Z,88799.19
2022-09-11T05:35:34.966Z,88803.06
2022-09-11T05:38:19.789Z,88802.50
2022-09-11T05:41:04.473Z,88797.09
2022-09-11T05:43:49.172Z,88802.50
2022-09-11T05:46:33.936Z,88807.00
2022-09-11T05:49:18.644Z,88803.69
2022-09-11T05:52:03.388Z,88811.16
2022-09-11T05:54:48.142Z,88811.84
2022-09-11T05:57:32.852Z,88815.19
2022-09-11T06:00:17.707Z,88811.34
2022-09-11T06:03:02.436Z,88822.19
2022-09-11T06:05:47.238Z,88821.66
2022-09-11T06:08:32.007Z,88823.25
2022-09-11T06:11:16.734Z,88818.91
2022-09-11T06:14:01.455Z,88831.28
2022-09-11T06:16:46.366Z,88835.47
2022-09-11T06:19:30.889Z,88832.53
2022-09-11T06:22:15.745Z,88836.38
2022-09-11T06:25:00.477Z,88832.53
2022-09-11T06:27:45.223Z,88837.56
2022-09-11T06:30:30.168Z,88830.41
2022-09-11T06:33:14.832Z,88839.34
2022-09-11T06:35:59.679Z,88838.97
2022-09-11T06:38:44.437Z,88841.03
2022-09-11T06:41:29.219Z,88840.88
2022-09-11T06:44:13.983Z,88837.81
2022-09-11T06:46:58.664Z,88841.16
2022-09-11T06:49:43.282Z,88839.81
2022-09-11T06:52:27.992Z,88838.84
2022-09-11T06:55:12.836Z,88831.31
2022-09-11T06:57:57.550Z,88839.53
2022-09-11T07:00:42.344Z,88826.88
2022-09-11T07:03:27.129Z,88839.25
2022-09-11T07:06:11.965Z,88836.31
2022-09-11T07:08:56.614Z,88837.41
2022-09-11T07:11:41.437Z,88831.28
2022-09-11T07:14:26.258Z,88828.56
2022-09-11T07:17:10.908Z,88832.03
2022-09-11T07:19:55.590Z,88826.41
2022-09-11T07:22:40.437Z,88822.97
2022-09-11T07:25:25.067Z,88828.81
2022-09-11T07:28:09.809Z,88834.66
2022-09-11T07:30:54.712Z,88820.78
2022-09-11T07:33:39.506Z,88820.84
2022-09-11T07:36:24.227Z,88824.25
2022-09-11T07:39:09.026Z,88830.69
2022-09-11T07:41:53.754Z,88825.31
2022-09-11T07:44:38.533Z,88824.78
2022-09-11T07:47:23.224Z,88823.94
2022-09-11T07:50:07.927Z,88818.53
2022-09-11T07:52:52.732Z,88818.66
2022-09-11T07:55:37.373Z,88812.25
2022-09-11T07:58:22.075Z,88810.44
2022-09-11T08:01:07.067Z,88816.72
2022-09-11T08:03:52.080Z,88811.69
2022-09-11T08:06:37.001Z,88821.09
2022-09-11T08:09:21.612Z,88813.16
2022-09-11T08:12:06.340Z,88819.69
2022-09-11T08:14:51.004Z,88812.22
2022-09-11T08:17:35.729Z,88818.34
2022-09-11T08:20:20.479Z,88812.75
2022-09-11T08:23:05.155Z,88818.56
2022-09-11T08:25:49.904Z,88818.00
2022-09-11T08:28:34.711Z,88818.06
2022-09-11T08:31:19.603Z,88823.56
2022-09-11T08:34:04.369Z,88813.31
2022-09-11T08:36:49.184Z,88810.78
2022-09-11T08:39:33.926Z,88809.47
2022-09-11T08:42:18.837Z,88804.97
2022-09-11T08:45:03.590Z,88805.63
2022-09-11T08:47:48.280Z,88803.56
2022-09-11T08:50:33.038Z,88801.38
2022-09-11T08:53:17.949Z,88811.06
2022-09-11T08:56:02.501Z,88808.28
2022-09-11T08:58:47.386Z,88810.97
2022-09-11T09:01:32.238Z,88810.50
2022-09-11T09:04:16.941Z,88809.00
2022-09-11T09:07:01.689Z,88815.44
2022-09-11T09:09:46.389Z,88803.75
2022-09-11T09:12:31.314Z,88806.72
2022-09-11T09:15:15.954Z,88812.22
2022-09-11T09:18:00.866Z,88817.84
2022-09-11T09:20:45.504Z,88810.41
2022-09-11T09:23:30.373Z,88797.25
2022-09-11T09:26:15.213Z,88806.66
2022-09-11T09:28:59.905Z,88802.28
2022-09-11T09:31:44.855Z,88797.63
2022-09-11T09:34:29.589Z,88799.16
2022-09-11T09:37:14.444Z,88791.97
2022-09-11T09:39:59.183Z,88795.09
2022-09-11T09:42:43.951Z,88789.59
2022-09-11T09:45:28.700Z,88791.66
2022-09-11T09:48:13.430Z,88786.66
2022-09-11T09:50:58.030Z,88780.00
2022-09-11T09:53:42.903Z,88771.53
2022-09-11T09:56:27.618Z,88780.44
2022-09-11T09:59:12.349Z,88770.84
2022-09-11T10:01:57.328Z,88769.31
2022-09-11T10:04:42.500Z,88766.41
2022-09-11T10:07:27.284Z,88763.34
2022-09-11T10:10:11.952Z,88770.56
2022-09-11T10:13:17.769Z,88764.16
2022-09-11T10:16:01.863Z,88761.50
2022-09-11T10:18:46.499Z,88763.22
2022-09-11T10:21:31.345Z,88756.16
2022-09-11T10:24:16.115Z,88767.38
2022-09-11T10:27:01.087Z,88762.34
2022-09-11T10:29:45.766Z,88759.72
2022-09-11T10:32:30.515Z,88759.72
2022-09-11T10:35:15.165Z,88752.34
2022-09-11T10:37:59.916Z,88762.22
2022-09-11T10:40:44.736Z,88754.66
2022-09-11T10:43:29.373Z,88754.84
2022-09-11T10:46:14.230Z,88751.16
2022-09-11T10:48:59.020Z,88746.03
2022-09-11T10:51:47.411Z,88749.72
2022-09-11T10:54:32.732Z,88743.50
2022-09-11T10:57:17.627Z,88746.69
2022-09-11T11:00:02.861Z,88747.56
2022-09-11T11:02:47.516Z,88747.38
2022-09-11T11:05:32.166Z,88747.03
2022-09-11T11:08:16.847Z,88739.72
2022-09-11T11:11:01.634Z,88738.22
2022-09-11T11:13:46.411Z,88738.00
2022-09-11T11:16:31.249Z,88736.97
2022-09-11T11:19:16.047Z,88732.72
2022-09-11T11:22:00.865Z,88730.78
2022-09-11T11:24:45.761Z,88735.00
2022-09-11T11:27:30.410Z,88729.50
2022-09-11T11:30:15.396Z,88732.97
2022-09-11T11:33:00.123Z,88731.78
2022-09-11T11:35:44.839Z,88731.81
2022-09-11T11:38:29.551Z,88727.56
2022-09-11T11:41:14.398Z,88730.97
2022-09-11T11:43:59.132Z,88727.44
2022-09-11T11:46:44.236Z,88724.66
2022-09-11T11:49:28.765Z,88739.41
2022-09-11T11:52:13.671Z,88720.75
2022-09-11T11:54:58.501Z,88725.03
2022-09-11T11:57:43.334Z,88721.47
2022-09-11T12:00:28.232Z,88721.75
2022-09-11T12:03:13.049Z,88711.81
2022-09-11T12:05:58.025Z,88718.16
2022-09-11T12:08:42.891Z,88712.03
2022-09-11T12:11:27.965Z,88717.63
2022-09-11T12:14:12.723Z,88716.72
2022-09-11T12:16:57.583Z,88717.97
2022-09-11T12:19:42.238Z,88714.94
2022-09-11T12:22:26.915Z,88708.84
2022-09-11T12:25:11.869Z,88696.22
2022-09-11T12:27:56.596Z,88700.75
2022-09-11T12:30:41.456Z,88688.44
2022-09-11T12:33:26.004Z,88688.84
2022-09-11T12:36:10.882Z,88688.28
2022-09-11T12:38:55.598Z,88675.44
2022-09-11T12:41:40.532Z,88680.13
2022-09-11T12:44:25.332Z,88678.97
2022-09-11T12:47:10.059Z,88675.72
2022-09-11T12:49:54.835Z,88676.75
2022-09-11T12:52:39.691Z,88670.59
2022-09-11T12:55:24.454Z,88670.22
2022-09-11T12:58:09.213Z,88659.50
2022-09-11T13:00:54.016Z,88662.25
2022-09-11T13:03:38.705Z,88663.09
2022-09-11T13:06:23.581Z,88663.09
2022-09-11T13:09:08.527Z,88647.97
2022-09-11T13:11:53.746Z,88650.06
2022-09-11T13:14:38.428Z,88651.97
2022-09-11T13:17:23.214Z,88644.16
2022-09-11T13:20:07.951Z,88637.50
2022-09-11T13:22:57.602Z,88642.19
2022-09-11T13:25:43.633Z,88637.44
2022-09-11T13:28:28.421Z,88630.66
2022-09-11T13:31:13.199Z,88627.88
2022-09-11T13:33:58.508Z,88627.66
2022-09-11T13:36:43.131Z,88623.88
2022-09-11T13:39:27.816Z,88619.59
2022-09-11T13:42:12.570Z,88618.97
2022-09-11T13:44:57.226Z,88611.69
2022-09-11T13:47:42.052Z,88615.31
2022-09-11T13:50:26.799Z,88611.53
2022-09-11T13:53:11.538Z,88603.69
2022-09-11T13:55:56.333Z,88603.69
2022-09-11T13:58:41.206Z,88602.06
2022-09-11T14:01:25.990Z,88600.13
2022-09-11T14:04:10.805Z,88599.78
2022-09-11T14:06:55.425Z,88594.81
2022-09-11T14:09:40.157Z,88598.41
2022-09-11T14:12:24.909Z,88592.59
2022-09-11T14:15:09.760Z,88583.03
2022-09-11T14:17:54.625Z,88588.56
2022-09-11T14:20:39.554Z,88588.09
2022-09-11T14:23:24.318Z,88580.28
2022-09-11T14:26:09.110Z,88571.97
2022-09-11T14:28:58.186Z,88573.22
2022-09-11T14:31:45.284Z,88572.28
2022-09-11T14:34:30.030Z,88569.75
2022-09-11T14:37:14.781Z,88571.34
2022-09-11T14:39:59.564Z,88564.44
2022-09-11T14:42:44.291Z,88563.84
2022-09-11T14:45:29.045Z,88561.09
2022-09-11T14:48:13.800Z,88567.09
2022-09-11T14:50:58.593Z,88556.94
2022-09-11T14:53:43.814Z,88562.94
2022-09-11T14:56:28.862Z,88557.03
2022-09-11T14:59:13.576Z,88560.03
2022-09-11T15:01:58.630Z,88552.66
2022-09-11T15:04:43.946Z,88559.78
2022-09-11T15:07:29.019Z,88555.28
2022-09-11T15:10:13.695Z,88557.16
2022-09-11T15:12:58.492Z,88551.28
2022-09-11T15:15:43.225Z,88550.94
2022-09-11T15:18:27.949Z,88543.91
2022-09-11T15:21:12.702Z,88538.91
2022-09-11T15:23:57.555Z,88541.81
2022-09-11T15:26:42.477Z,88542.00
2022-09-11T15:29:31.209Z,88536.91
2022-09-11T15:32:16.373Z,88538.28
2022-09-11T15:35:01.219Z,88531.28
2022-09-11T15:37:45.880Z,88537.53
2022-09-11T15:40:30.764Z,88539.75
2022-09-11T15:43:15.459Z,88543.56
2022-09-11T15:46:00.408Z,88536.22
2022-09-11T15:48:45.465Z,88543.13
2022-09-11T15:51:30.104Z,88532.31
2022-09-11T15:54:14.811Z,88534.53
2022-09-11T15:56:59.536Z,88535.47
2022-09-11T15:59:44.146Z,88534.53
2022-09-11T16:02:28.926Z,88536.97
2022-09-11T16:05:13.913Z,88536.50
2022-09-11T16:07:58.574Z,88530.75
2022-09-11T16:10:43.446Z,88530.81
2022-09-11T16:13:28.147Z,88531.75
2022-09-11T16:16:12.989Z,88531.84
2022-09-11T16:18:57.633Z,88532.31
2022-09-11T16:21:42.533Z,88533.13
2022-09-11T16:24:27.327Z,88536.34
2022-09-11T16:27:12.097Z,88546.81
2022-09-11T16:30:26.208Z,88537.84
2022-09-11T16:33:01.663Z,88535.63
2022-09-11T16:35:46.414Z,88540.56
2022-09-11T16:38:31.253Z,88546.19
2022-09-11T16:41:16.162Z,88540.91
2022-09-11T16:44:00.873Z,88541.00
2022-09-11T16:46:45.601Z,88542.56
2022-09-11T16:49:37.215Z,88538.19
2022-09-11T16:52:29.790Z,88551.88
2022-09-11T16:55:14.723Z,88545.75
2022-09-11T16:57:59.439Z,88553.44
2022-09-11T17:00:44.378Z,88554.44
2022-09-11T17:03:28.953Z,88554.53
2022-09-11T17:06:13.785Z,88548.72
2022-09-11T17:08:58.495Z,88550.56
2022-09-11T17:11:43.253Z,88550.88
2022-09-11T17:14:27.993Z,88557.06
2022-09-11T17:17:12.849Z,88553.78
2022-09-11T17:19:57.823Z,88551.59
2022-09-11T17:22:42.585Z,88552.59
2022-09-11T17:25:27.415Z,88550.63
2022-09-11T17:28:12.129Z,88548.72
2022-09-11T17:30:56.966Z,88550.44
2022-09-11T17:33:41.507Z,88549.94
2022-09-11T17:36:26.424Z,88557.47
2022-09-11T17:39:11.140Z,88560.28
2022-09-11T17:41:55.980Z,88567.38
2022-09-11T17:44:40.796Z,88561.53
2022-09-11T17:47:25.705Z,88561.03
2022-09-11T17:50:10.504Z,88562.00
2022-09-11T17:52:55.385Z,88563.44
2022-09-11T17:55:40.248Z,88560.56
2022-09-11T17:58:24.957Z,88566.69
2022-09-11T18:01:12.565Z,88570.88
2022-09-11T18:03:59.667Z,88569.78
2022-09-11T18:06:44.372Z,88572.13
2022-09-11T18:09:29.214Z,88572.88
2022-09-11T18:12:13.866Z,88576.19
2022-09-11T18:14:58.678Z,88577.47
2022-09-11T18:17:43.436Z,88577.59
2022-09-11T18:20:28.237Z,88577.31
2022-09-11T18:23:13.069Z,88574.84
2022-09-11T18:25:59.748Z,88577.47
2022-09-11T18:28:44.782Z,88583.69
2022-09-11T18:31:30.121Z,88586.06
2022-09-11T18:34:15.259Z,88589.28
2022-09-11T18:37:00.146Z,88591.75
2022-09-11T18:39:45.297Z,88589.53
2022-09-11T18:42:30.130Z,88595.94
2022-09-11T18:45:14.891Z,88593.44
2022-09-11T18:48:00.149Z,88604.25
2022-09-11T18:50:45.091Z,88611.91
2022-09-11T18:53:29.999Z,88601.34
2022-09-11T18:56:14.751Z,88606.47
2022-09-11T18:59:00.226Z,88603.00
2022-09-11T19:01:46.563Z,88609.38
2022-09-11T19:04:31.713Z,88619.94
2022-09-11T19:07:16.523Z,88621.16
2022-09-11T19:10:01.269Z,88617.56
2022-09-11T19:12:46.059Z,88618.66
2022-09-11T19:15:30.694Z,88617.81
2022-09-11T19:18:15.422Z,88620.03
2022-09-11T19:21:00.266Z,88630.16
2022-09-11T19:23:45.575Z,88634.56
2022-09-11T19:26:30.337Z,88636.25
2022-09-11T19:29:15.246Z,88637.34
2022-09-11T19:32:00.377Z,88634.28
2022-09-11T19:34:47.452Z,88641.50
2022-09-11T19:37:32.665Z,88645.25
2022-09-11T19:40:17.555Z,88658.25
2022-09-11T19:43:02.698Z,88657.81
2022-09-11T19:45:47.495Z,88657.91
2022-09-11T19:48:32.489Z,88662.72
2022-09-11T19:51:17.199Z,88668.28
2022-09-11T19:54:02.002Z,88663.53
2022-09-11T19:56:46.818Z,88674.03
2022-09-11T19:59:31.670Z,88672.34
2022-09-11T20:02:16.430Z,88686.84
2022-09-11T20:05:01.089Z,88685.44
2022-09-11T20:07:45.964Z,88688.47
2022-09-11T20:10:30.616Z,88684.69
2022-09-11T20:13:15.659Z,88679.38
2022-09-11T20:16:00.515Z,88688.06
2022-09-11T20:18:45.691Z,88678.22
2022-09-11T20:21:30.573Z,88682.63
2022-09-11T20:24:15.334Z,88685.13
2022-09-11T20:27:00.577Z,88682.72
2022-09-11T20:29:45.427Z,88683.50
2022-09-11T20:32:30.287Z,88689.47
2022-09-11T20:35:14.942Z,88686.84
2022-09-11T20:38:00.472Z,88691.41
2022-09-11T20:40:45.607Z,88691.41
2022-09-11T20:43:30.386Z,88691.94
2022-09-11T20:46:15.258Z,88691.63
2022-09-11T20:49:00.549Z,88696.03
2022-09-11T20:51:45.819Z,88692.03
2022-09-11T20:54:30.499Z,88696.81
2022-09-11T20:57:15.337Z,88687.94
2022-09-11T21:00:00.577Z,88691.81
2022-09-11T21:02:45.801Z,88697.44
2022-09-11T21:05:30.693Z,88696.03
2022-09-11T21:08:15.287Z,88701.13
2022-09-11T21:11:00.063Z,88697.81
2022-09-11T21:13:44.835Z,88699.97
2022-09-11T21:16:29.761Z,88707.69
2022-09-11T21:19:14.965Z,88702.59
2022-09-11T21:21:59.594Z,88704.38
2022-09-11T21:24:44.317Z,88695.63
2022-09-11T21:27:29.124Z,88706.69
2022-09-11T21:30:13.760Z,88699.19
2022-09-11T21:32:58.419Z,88705.22
2022-09-11T21:35:43.155Z,88704.34
2022-09-11T21:38:27.992Z,88705.25
2022-09-11T21:41:12.887Z,88704.44
2022-09-11T21:43:57.522Z,88706.03
2022-09-11T21:46:42.428Z,88702.16
2022-09-11T21:49:27.013Z,88703.41
2022-09-11T21:52:11.857Z,88704.25
2022-09-11T21:54:56.588Z,88711.13
2022-09-11T21:57:41.309Z,88716.22
2022-09-11T22:00:26.056Z,88718.69
2022-09-11T22:03:10.718Z,88706.09
2022-09-11T22:05:55.539Z,88708.72
2022-09-11T22:08:40.304Z,88716.44
2022-09-11T22:11:25.134Z,88711.56
2022-09-11T22:14:09.834Z,88719.31
2022-09-11T22:16:54.591Z,88718.97
2022-09-11T22:19:39.424Z,88722.81
2022-09-11T22:22:24.359Z,88718.13
2022-09-11T22:25:08.988Z,88726.00
2022-09-11T22:27:53.765Z,88721.97
2022-09-11T22:30:38.541Z,88718.50
2022-09-11T22:33:23.293Z,88725.34
2022-09-11T22:36:08.177Z,88723.63
2022-09-11T22:38:52.956Z,88713.50
2022-09-11T22:41:37.712Z,88724.16
2022-09-11T22:44:22.401Z,88720.84
2022-09-11T22:47:07.149Z,88720.34
2022-09-11T22:49:51.789Z,88721.41
2022-09-11T22:52:36.499Z,88717.97
2022-09-11T22:55:21.238Z,88718.16
2022-09-11T22:58:06.062Z,88722.41
2022-09-11T23:00:50.952Z,88722.41
2022-09-11T23:03:35.736Z,88721.56
2022-09-11T23:06:20.558Z,88722.63
2022-09-11T23:09:05.227Z,88721.75
2022-09-11T23:11:50.082Z,88720.88
2022-09-11T23:14:34.749Z,88712.00
2022-09-11T23:17:19.733Z,88718.47
2022-09-11T23:20:04.538Z,88715.66
2022-09-11T23:22:49.439Z,88713.22
2022-09-11T23:25:34.109Z,88713.22
2022-09-11T23:28:18.934Z,88717.59
2022-09-11T23:31:03.801Z,88709.03
2022-09-11T23:33:48.564Z,88716.19
2022-09-11T23:36:33.476Z,88710.41
2022-09-11T23:39:18.177Z,88712.88
2022-09-11T23:42:03.007Z,88714.81
2022-09-11T23:44:47.655Z,88714.13
2022-09-11T23:47:32.447Z,88712.38
2022-09-11T23:50:17.206Z,88709.75
2022-09-11T23:53:02.005Z,88707.84
2022-09-11T23:55:46.683Z,88709.06
2022-09-11T23:58:31.474Z,88710.84
